sensor_id;sensor_type;location;lat;lon;timestamp;pressure;altitude;pressure_sealevel;temperature;humidity
36726;BME280;44936;52.086;5.150;2023-05-09T00:01:14;100473.75;;;14.99;100.00
36726;BME280;44936;52.086;5.150;2023-05-09T00:03:41;100456.09;;;15.01;100.00
36726;BME280;44936;52.086;5.150;2023-05-09T00:06:07;100440.25;;;15.01;100.00
36726;BME280;44936;52.086;5.150;2023-05-09T00:08:33;100410.47;;;14.95;100.00
36726;BME280;44936;52.086;5.150;2023-05-09T00:10:59;100391.88;;;14.99;100.00
36726;BME280;44936;52.086;5.150;2023-05-09T00:13:26;100352.44;;;14.92;100.00
36726;BME280;44936;52.086;5.150;2023-05-09T00:15:51;100321.50;;;14.97;100.00
36726;BME280;44936;52.086;5.150;2023-05-09T00:18:22;100002.03;;;14.95;100.00
36726;BME280;44936;52.086;5.150;2023-05-09T00:20:48;99986.19;;;14.95;100.00
36726;BME280;44936;52.086;5.150;2023-05-09T00:23:14;99968.88;;;14.85;100.00
36726;BME280;44936;52.086;5.150;2023-05-09T00:25:40;99967.81;;;14.91;100.00
36726;BME280;44936;52.086;5.150;2023-05-09T00:28:05;99927.34;;;14.90;100.00
36726;BME280;44936;52.086;5.150;2023-05-09T00:30:31;99921.22;;;14.90;100.00
36726;BME280;44936;52.086;5.150;2023-05-09T00:32:57;99919.53;;;14.87;100.00
36726;BME280;44936;52.086;5.150;2023-05-09T00:35:22;99921.22;;;14.90;100.00
36726;BME280;44936;52.086;5.150;2023-05-09T00:37:47;99926.53;;;14.88;100.00
36726;BME280;44936;52.086;5.150;2023-05-09T00:40:13;99913.34;;;14.88;100.00
36726;BME280;44936;52.086;5.150;2023-05-09T00:42:38;99906.38;;;14.86;100.00
36726;BME280;44936;52.086;5.150;2023-05-09T00:45:04;99872.47;;;14.72;100.00
36726;BME280;44936;52.086;5.150;2023-05-09T00:47:31;99880.16;;;14.80;100.00
36726;BME280;44936;52.086;5.150;2023-05-09T00:49:56;99858.34;;;14.73;100.00
36726;BME280;44936;52.086;5.150;2023-05-09T00:52:23;99880.91;;;14.83;100.00
36726;BME280;44936;52.086;5.150;2023-05-09T00:54:51;99880.91;;;14.83;100.00
36726;BME280;44936;52.086;5.150;2023-05-09T00:57:16;99888.81;;;14.85;100.00
36726;BME280;44936;52.086;5.150;2023-05-09T00:59:42;99896.69;;;14.86;100.00
36726;BME280;44936;52.086;5.150;2023-05-09T01:02:07;99887.84;;;14.87;100.00
36726;BME280;44936;52.086;5.150;2023-05-09T01:04:33;99882.75;;;14.81;100.00
36726;BME280;44936;52.086;5.150;2023-05-09T01:07:22;99875.63;;;14.83;100.00
36726;BME280;44936;52.086;5.150;2023-05-09T01:10:22;99873.84;;;14.85;100.00
36726;BME280;44936;52.086;5.150;2023-05-09T01:13:03;99866.84;;;14.84;100.00
36726;BME280;44936;52.086;5.150;2023-05-09T01:15:38;99874.78;;;14.83;100.00
36726;BME280;44936;52.086;5.150;2023-05-09T01:18:14;99873.06;;;14.82;100.00
36726;BME280;44936;52.086;5.150;2023-05-09T01:20:46;99880.22;;;14.78;100.00
36726;BME280;44936;52.086;5.150;2023-05-09T01:26:25;99870.56;;;14.77;100.00
36726;BME280;44936;52.086;5.150;2023-05-09T01:29:35;99877.47;;;14.81;100.00
36726;BME280;44936;52.086;5.150;2023-05-09T01:32:04;99870.47;;;14.80;100.00
36726;BME280;44936;52.086;5.150;2023-05-09T01:34:32;99872.28;;;14.78;100.00
36726;BME280;44936;52.086;5.150;2023-05-09T01:37:00;99869.59;;;14.80;100.00
36726;BME280;44936;52.086;5.150;2023-05-09T01:39:29;99872.47;;;14.72;100.00
36726;BME280;44936;52.086;5.150;2023-05-09T01:41:58;99877.69;;;14.73;100.00
36726;BME280;44936;52.086;5.150;2023-05-09T01:44:28;99886.41;;;14.77;100.00
36726;BME280;44936;52.086;5.150;2023-05-09T01:46:57;99878.59;;;14.72;100.00
36726;BME280;44936;52.086;5.150;2023-05-09T01:49:24;99846.44;;;14.60;100.00
36726;BME280;44936;52.086;5.150;2023-05-09T01:51:51;99860.00;;;14.77;100.00
36726;BME280;44936;52.086;5.150;2023-05-09T01:54:19;99860.00;;;14.77;100.00
36726;BME280;44936;52.086;5.150;2023-05-09T01:56:47;99858.22;;;14.78;100.00
36726;BME280;44936;52.086;5.150;2023-05-09T01:59:13;99848.53;;;14.78;100.00
36726;BME280;44936;52.086;5.150;2023-05-09T02:01:42;99846.03;;;14.73;100.00
36726;BME280;44936;52.086;5.150;2023-05-09T02:04:08;99845.09;;;14.76;100.00
36726;BME280;44936;52.086;5.150;2023-05-09T02:06:35;99831.88;;;14.76;100.00
36726;BME280;44936;52.086;5.150;2023-05-09T02:09:01;99820.69;;;14.68;100.00
36726;BME280;44936;52.086;5.150;2023-05-09T02:11:27;99815.41;;;14.68;100.00
36726;BME280;44936;52.086;5.150;2023-05-09T02:13:52;99830.38;;;14.67;100.00
36726;BME280;44936;52.086;5.150;2023-05-09T02:16:17;99840.84;;;14.70;100.00
36726;BME280;44936;52.086;5.150;2023-05-09T02:18:43;99844.34;;;14.71;100.00
36726;BME280;44936;52.086;5.150;2023-05-09T02:21:09;99854.91;;;14.71;100.00
36726;BME280;44936;52.086;5.150;2023-05-09T02:23:34;99856.63;;;14.72;100.00
36726;BME280;44936;52.086;5.150;2023-05-09T02:26:00;99835.63;;;14.69;100.00
36726;BME280;44936;52.086;5.150;2023-05-09T02:28:27;99831.31;;;14.65;100.00
36726;BME280;44936;52.086;5.150;2023-05-09T02:30:54;99802.22;;;14.68;100.00
36726;BME280;44936;52.086;5.150;2023-05-09T02:33:21;99795.22;;;14.67;100.00
36726;BME280;44936;52.086;5.150;2023-05-09T02:35:48;99785.47;;;14.69;100.00
36726;BME280;44936;52.086;5.150;2023-05-09T02:38:14;99772.31;;;14.67;100.00
36726;BME280;44936;52.086;5.150;2023-05-09T02:40:41;99754.03;;;14.61;100.00
36726;BME280;44936;52.086;5.150;2023-05-09T02:43:08;99757.38;;;14.66;100.00
36726;BME280;44936;52.086;5.150;2023-05-09T02:45:34;99745.25;;;14.61;100.00
36726;BME280;44936;52.086;5.150;2023-05-09T02:47:59;99744.22;;;14.65;100.00
36726;BME280;44936;52.086;5.150;2023-05-09T02:50:25;99708.97;;;14.38;100.00
36726;BME280;44936;52.086;5.150;2023-05-09T02:52:50;99751.22;;;14.66;100.00
36726;BME280;44936;52.086;5.150;2023-05-09T02:55:16;99770.63;;;14.65;100.00
36726;BME280;44936;52.086;5.150;2023-05-09T02:57:41;99794.69;;;14.54;100.00
36726;BME280;44936;52.086;5.150;2023-05-09T03:00:07;99830.88;;;14.51;100.00
36726;BME280;44936;52.086;5.150;2023-05-09T03:02:34;99876.66;;;14.48;100.00
36726;BME280;44936;52.086;5.150;2023-05-09T03:05:00;99903.16;;;14.45;100.00
36726;BME280;44936;52.086;5.150;2023-05-09T03:07:25;99923.03;;;14.57;100.00
36726;BME280;44936;52.086;5.150;2023-05-09T03:09:50;99910.81;;;14.54;100.00
36726;BME280;44936;52.086;5.150;2023-05-09T03:12:16;99854.38;;;14.27;100.00
36726;BME280;44936;52.086;5.150;2023-05-09T03:14:41;99866.00;;;14.53;100.00
36726;BME280;44936;52.086;5.150;2023-05-09T03:17:06;99843.22;;;14.49;100.00
36726;BME280;44936;52.086;5.150;2023-05-09T03:19:32;99810.75;;;14.47;100.00
36726;BME280;44936;52.086;5.150;2023-05-09T03:21:57;99794.50;;;14.29;100.00
36726;BME280;44936;52.086;5.150;2023-05-09T03:24:25;99810.28;;;14.32;100.00
36726;BME280;44936;52.086;5.150;2023-05-09T03:26:50;99839.31;;;14.31;100.00
36726;BME280;44936;52.086;5.150;2023-05-09T03:29:15;99814.94;;;14.23;100.00
36726;BME280;44936;52.086;5.150;2023-05-09T03:31:41;99792.88;;;14.25;100.00
36726;BME280;44936;52.086;5.150;2023-05-09T03:34:06;99725.56;;;14.12;100.00
36726;BME280;44936;52.086;5.150;2023-05-09T03:36:37;99726.72;;;14.33;100.00
36726;BME280;44936;52.086;5.150;2023-05-09T03:39:02;99700.47;;;14.28;100.00
36726;BME280;44936;52.086;5.150;2023-05-09T03:41:27;99671.63;;;14.24;100.00
36726;BME280;44936;52.086;5.150;2023-05-09T03:43:53;99667.22;;;14.24;100.00
36726;BME280;44936;52.086;5.150;2023-05-09T03:46:18;99652.13;;;14.28;100.00
36726;BME280;44936;52.086;5.150;2023-05-09T03:48:43;99627.88;;;14.16;100.00
36726;BME280;44936;52.086;5.150;2023-05-09T03:51:09;99603.47;;;14.10;100.00
36726;BME280;44936;52.086;5.150;2023-05-09T03:53:34;99574.94;;;13.95;100.00
36726;BME280;44936;52.086;5.150;2023-05-09T03:55:59;99613.84;;;14.16;100.00
36726;BME280;44936;52.086;5.150;2023-05-09T03:58:25;99606.91;;;14.12;100.00
36726;BME280;44936;52.086;5.150;2023-05-09T04:00:50;99600.03;;;14.08;100.00
36726;BME280;44936;52.086;5.150;2023-05-09T04:03:16;99619.28;;;14.10;100.00
36726;BME280;44936;52.086;5.150;2023-05-09T04:05:41;99609.59;;;14.10;100.00
36726;BME280;44936;52.086;5.150;2023-05-09T04:08:06;99589.03;;;13.94;100.00
36726;BME280;44936;52.086;5.150;2023-05-09T04:10:32;99592.34;;;14.00;100.00
36726;BME280;44936;52.086;5.150;2023-05-09T04:12:57;99553.78;;;13.68;100.00
36726;BME280;44936;52.086;5.150;2023-05-09T04:15:23;99590.28;;;13.82;100.00
36726;BME280;44936;52.086;5.150;2023-05-09T04:17:48;99617.75;;;14.03;100.00
36726;BME280;44936;52.086;5.150;2023-05-09T04:20:13;99616.81;;;14.05;100.00
36726;BME280;44936;52.086;5.150;2023-05-09T04:22:39;99613.66;;;13.93;100.00
36726;BME280;44936;52.086;5.150;2023-05-09T04:25:05;99614.31;;;14.01;100.00
36726;BME280;44936;52.086;5.150;2023-05-09T04:27:30;99632.94;;;13.95;100.00
36726;BME280;44936;52.086;5.150;2023-05-09T04:29:56;99640.88;;;13.93;100.00
36726;BME280;44936;52.086;5.150;2023-05-09T04:32:21;99647.75;;;13.99;100.00
36726;BME280;44936;52.086;5.150;2023-05-09T04:34:47;99653.22;;;13.93;100.00
36726;BME280;44936;52.086;5.150;2023-05-09T04:37:13;99658.31;;;13.99;100.00
36726;BME280;44936;52.086;5.150;2023-05-09T04:39:38;99662.63;;;14.01;100.00
36726;BME280;44936;52.086;5.150;2023-05-09T04:42:05;99674.28;;;13.93;100.00
36726;BME280;44936;52.086;5.150;2023-05-09T04:44:30;99673.97;;;14.05;100.00
36726;BME280;44936;52.086;5.150;2023-05-09T04:46:57;99670.47;;;14.03;100.00
36726;BME280;44936;52.086;5.150;2023-05-09T04:49:23;99682.75;;;14.04;100.00
36726;BME280;44936;52.086;5.150;2023-05-09T04:51:49;99656.84;;;13.88;100.00
36726;BME280;44936;52.086;5.150;2023-05-09T04:54:14;99694.78;;;14.14;100.00
36726;BME280;44936;52.086;5.150;2023-05-09T04:56:40;99674.81;;;14.05;100.00
36726;BME280;44936;52.086;5.150;2023-05-09T04:59:05;99691.16;;;14.16;100.00
36726;BME280;44936;52.086;5.150;2023-05-09T05:01:31;99701.53;;;14.23;100.00
36726;BME280;44936;52.086;5.150;2023-05-09T05:03:56;99702.47;;;14.20;100.00
36726;BME280;44936;52.086;5.150;2023-05-09T05:06:24;99724.22;;;14.28;100.00
36726;BME280;44936;52.086;5.150;2023-05-09T05:08:49;99735.69;;;14.27;100.00
36726;BME280;44936;52.086;5.150;2023-05-09T05:11:14;99744.22;;;14.35;100.00
36726;BME280;44936;52.086;5.150;2023-05-09T05:13:42;99738.81;;;14.40;100.00
36726;BME280;44936;52.086;5.150;2023-05-09T05:16:07;99749.22;;;14.46;100.00
36726;BME280;44936;52.086;5.150;2023-05-09T05:18:32;99721.28;;;14.37;100.00
36726;BME280;44936;52.086;5.150;2023-05-09T05:20:58;99752.25;;;14.62;100.00
36726;BME280;44936;52.086;5.150;2023-05-09T05:23:23;99742.66;;;14.59;100.00
36726;BME280;44936;52.086;5.150;2023-05-09T05:25:49;99764.72;;;14.57;100.00
36726;BME280;44936;52.086;5.150;2023-05-09T05:28:14;99776.00;;;14.62;100.00
36726;BME280;44936;52.086;5.150;2023-05-09T05:30:40;99799.00;;;14.58;100.00
36726;BME280;44936;52.086;5.150;2023-05-09T05:33:08;99805.09;;;14.60;100.00
36726;BME280;44936;52.086;5.150;2023-05-09T05:35:33;99817.47;;;14.57;100.00
36726;BME280;44936;52.086;5.150;2023-05-09T05:37:59;99852.38;;;14.66;100.00
36726;BME280;44936;52.086;5.150;2023-05-09T05:40:25;99879.19;;;14.82;100.00
36726;BME280;44936;52.086;5.150;2023-05-09T05:42:50;99881.06;;;14.79;100.00
36726;BME280;44936;52.086;5.150;2023-05-09T05:45:15;99927.84;;;14.73;100.00
36726;BME280;44936;52.086;5.150;2023-05-09T05:47:41;100153.72;;;14.84;100.00
36726;BME280;44936;52.086;5.150;2023-05-09T05:50:06;100235.47;;;14.88;100.00
36726;BME280;44936;52.086;5.150;2023-05-09T05:52:36;100259.63;;;14.71;100.00
36726;BME280;44936;52.086;5.150;2023-05-09T05:55:01;100339.44;;;14.84;100.00
36726;BME280;44936;52.086;5.150;2023-05-09T05:57:27;100379.34;;;14.69;100.00
36726;BME280;44936;52.086;5.150;2023-05-09T05:59:52;100419.69;;;14.76;100.00
36726;BME280;44936;52.086;5.150;2023-05-09T06:02:18;100426.03;;;14.65;100.00
36726;BME280;44936;52.086;5.150;2023-05-09T06:04:43;100418.34;;;14.55;100.00
36726;BME280;44936;52.086;5.150;2023-05-09T06:07:09;100430.53;;;14.62;100.00
36726;BME280;44936;52.086;5.150;2023-05-09T06:09:37;100439.13;;;14.71;100.00
36726;BME280;44936;52.086;5.150;2023-05-09T06:12:02;100409.34;;;14.65;100.00
36726;BME280;44936;52.086;5.150;2023-05-09T06:14:28;100400.66;;;14.60;100.00
36726;BME280;44936;52.086;5.150;2023-05-09T06:16:53;100394.44;;;14.62;100.00
36726;BME280;44936;52.086;5.150;2023-05-09T06:19:19;100353.59;;;14.37;100.00
36726;BME280;44936;52.086;5.150;2023-05-09T06:21:47;100330.75;;;14.36;100.00
36726;BME280;44936;52.086;5.150;2023-05-09T06:24:12;100342.78;;;14.51;100.00
36726;BME280;44936;52.086;5.150;2023-05-09T06:26:38;100364.25;;;14.76;100.00
36726;BME280;44936;52.086;5.150;2023-05-09T06:29:04;100311.94;;;14.53;100.00
36726;BME280;44936;52.086;5.150;2023-05-09T06:31:30;100293.41;;;14.56;100.00
36726;BME280;44936;52.086;5.150;2023-05-09T06:33:56;100266.75;;;14.66;100.00
36726;BME280;44936;52.086;5.150;2023-05-09T06:36:21;100261.34;;;14.72;100.00
36726;BME280;44936;52.086;5.150;2023-05-09T06:38:46;100223.50;;;14.73;100.00
36726;BME280;44936;52.086;5.150;2023-05-09T06:41:12;100176.25;;;14.63;100.00
36726;BME280;44936;52.086;5.150;2023-05-09T06:43:37;100136.75;;;14.60;100.00
36726;BME280;44936;52.086;5.150;2023-05-09T06:46:07;100135.47;;;14.74;100.00
36726;BME280;44936;52.086;5.150;2023-05-09T06:48:33;100109.00;;;14.78;100.00
36726;BME280;44936;52.086;5.150;2023-05-09T06:50:58;100046.53;;;14.78;100.00
36726;BME280;44936;52.086;5.150;2023-05-09T06:53:26;99938.81;;;14.60;100.00
36726;BME280;44936;52.086;5.150;2023-05-09T06:55:51;99894.81;;;14.60;100.00
36726;BME280;44936;52.086;5.150;2023-05-09T06:58:17;99601.97;;;14.57;100.00
36726;BME280;44936;52.086;5.150;2023-05-09T07:00:42;99581.69;;;14.59;100.00
36726;BME280;44936;52.086;5.150;2023-05-09T07:03:15;99584.03;;;14.68;100.00
36726;BME280;44936;52.086;5.150;2023-05-09T07:05:41;99578.50;;;14.76;100.00
36726;BME280;44936;52.086;5.150;2023-05-09T07:08:06;99560.28;;;14.68;100.00
36726;BME280;44936;52.086;5.150;2023-05-09T07:10:34;99531.63;;;14.58;100.00
36726;BME280;44936;52.086;5.150;2023-05-09T07:13:00;99527.22;;;14.57;100.00
36726;BME280;44936;52.086;5.150;2023-05-09T07:15:26;99547.50;;;14.81;100.00
36726;BME280;44936;52.086;5.150;2023-05-09T07:17:51;99527.38;;;14.79;100.00
36726;BME280;44936;52.086;5.150;2023-05-09T07:20:20;99518.47;;;14.81;100.00
36726;BME280;44936;52.086;5.150;2023-05-09T07:22:45;99539.38;;;14.87;100.00
36726;BME280;44936;52.086;5.150;2023-05-09T07:25:11;99505.59;;;14.72;100.00
36726;BME280;44936;52.086;5.150;2023-05-09T07:27:36;99501.44;;;14.65;100.00
36726;BME280;44936;52.086;5.150;2023-05-09T07:30:05;99512.50;;;14.76;100.00
36726;BME280;44936;52.086;5.150;2023-05-09T07:32:32;99520.38;;;14.78;100.00
36726;BME280;44936;52.086;5.150;2023-05-09T07:34:57;99549.81;;;14.90;100.00
36726;BME280;44936;52.086;5.150;2023-05-09T07:37:23;99542.69;;;14.92;100.00
36726;BME280;44936;52.086;5.150;2023-05-09T07:39:48;99499.41;;;14.73;100.00
36726;BME280;44936;52.086;5.150;2023-05-09T07:42:14;99516.53;;;14.86;100.00
36726;BME280;44936;52.086;5.150;2023-05-09T07:44:40;99541.63;;;14.98;100.00
36726;BME280;44936;52.086;5.150;2023-05-09T07:47:06;99499.25;;;14.78;100.00
36726;BME280;44936;52.086;5.150;2023-05-09T07:49:33;99542.44;;;15.00;100.00
36726;BME280;44936;52.086;5.150;2023-05-09T07:51:59;99542.56;;;14.97;100.00
36726;BME280;44936;52.086;5.150;2023-05-09T07:54:24;99556.63;;;14.97;100.00
36726;BME280;44936;52.086;5.150;2023-05-09T07:56:50;99536.47;;;14.95;100.00
36726;BME280;44936;52.086;5.150;2023-05-09T07:59:15;99529.47;;;14.94;100.00
36726;BME280;44936;52.086;5.150;2023-05-09T08:01:41;99546.91;;;14.98;100.00
36726;BME280;44936;52.086;5.150;2023-05-09T08:04:06;99549.59;;;14.96;100.00
36726;BME280;44936;52.086;5.150;2023-05-09T08:06:33;99567.13;;;14.99;100.00
36726;BME280;44936;52.086;5.150;2023-05-09T08:08:59;99576.75;;;15.00;100.00
36726;BME280;44936;52.086;5.150;2023-05-09T08:11:24;99539.53;;;14.83;100.00
36726;BME280;44936;52.086;5.150;2023-05-09T08:13:49;99558.59;;;14.91;100.00
36726;BME280;44936;52.086;5.150;2023-05-09T08:16:15;99573.19;;;15.01;100.00
36726;BME280;44936;52.086;5.150;2023-05-09T08:18:42;99590.66;;;15.05;100.00
36726;BME280;44936;52.086;5.150;2023-05-09T08:21:07;99554.69;;;14.78;100.00
36726;BME280;44936;52.086;5.150;2023-05-09T08:23:32;99581.44;;;14.92;100.00
36726;BME280;44936;52.086;5.150;2023-05-09T08:25:58;99606.25;;;15.13;100.00
36726;BME280;44936;52.086;5.150;2023-05-09T08:28:23;99578.34;;;15.06;100.00
36726;BME280;44936;52.086;5.150;2023-05-09T08:30:50;99546.00;;;14.99;100.00
36726;BME280;44936;52.086;5.150;2023-05-09T08:33:16;99561.22;;;15.16;100.00
36726;BME280;44936;52.086;5.150;2023-05-09T08:35:41;99580.53;;;15.18;100.00
36726;BME280;44936;52.086;5.150;2023-05-09T08:38:07;99585.00;;;15.16;100.00
36726;BME280;44936;52.086;5.150;2023-05-09T08:40:36;99585.38;;;15.05;100.00
36726;BME280;44936;52.086;5.150;2023-05-09T08:43:05;99601.44;;;15.24;100.00
36726;BME280;44936;52.086;5.150;2023-05-09T08:45:56;99585.00;;;15.16;100.00
36726;BME280;44936;52.086;5.150;2023-05-09T08:48:25;99580.75;;;15.12;100.00
36726;BME280;44936;52.086;5.150;2023-05-09T08:50:54;99613.53;;;15.31;100.00
36726;BME280;44936;52.086;5.150;2023-05-09T08:53:20;99595.50;;;15.17;100.00
36726;BME280;44936;52.086;5.150;2023-05-09T08:55:48;99614.59;;;15.25;100.00
36726;BME280;44936;52.086;5.150;2023-05-09T08:58:15;99622.38;;;15.30;100.00
36726;BME280;44936;52.086;5.150;2023-05-09T09:00:43;99600.09;;;15.12;100.00
36726;BME280;44936;52.086;5.150;2023-05-09T09:03:12;99616.09;;;15.33;100.00
36726;BME280;44936;52.086;5.150;2023-05-09T09:05:41;99586.84;;;15.14;100.00
36726;BME280;44936;52.086;5.150;2023-05-09T09:08:09;99580.25;;;15.00;100.00
36726;BME280;44936;52.086;5.150;2023-05-09T09:10:39;99595.19;;;15.01;100.00
36726;BME280;44936;52.086;5.150;2023-05-09T09:13:12;99626.47;;;15.14;100.00
36726;BME280;44936;52.086;5.150;2023-05-09T09:15:39;99631.22;;;15.29;100.00
36726;BME280;44936;52.086;5.150;2023-05-09T09:18:07;99600.09;;;15.12;100.00
36726;BME280;44936;52.086;5.150;2023-05-09T09:20:48;99594.06;;;15.09;100.00
36726;BME280;44936;52.086;5.150;2023-05-09T09:23:19;99622.97;;;15.38;100.00
36726;BME280;44936;52.086;5.150;2023-05-09T09:26:08;99599.06;;;15.41;100.00
36726;BME280;44936;52.086;5.150;2023-05-09T09:28:35;99602.84;;;15.34;100.00
36726;BME280;44936;52.086;5.150;2023-05-09T09:31:18;99610.69;;;15.36;100.00
36726;BME280;44936;52.086;5.150;2023-05-09T09:33:43;99606.59;;;15.27;100.00
36726;BME280;44936;52.086;5.150;2023-05-09T09:36:12;99609.81;;;15.12;100.00
36726;BME280;44936;52.086;5.150;2023-05-09T09:38:41;99627.31;;;15.14;100.00
36726;BME280;44936;52.086;5.150;2023-05-09T09:41:12;99664.41;;;15.36;100.00
36726;BME280;44936;52.086;5.150;2023-05-09T09:43:44;99634.97;;;15.22;100.00
36726;BME280;44936;52.086;5.150;2023-05-09T09:46:12;99641.81;;;15.27;100.00
36726;BME280;44936;52.086;5.150;2023-05-09T09:48:38;99645.22;;;15.31;100.00
36726;BME280;44936;52.086;5.150;2023-05-09T09:51:08;99649.41;;;15.37;100.00
36726;BME280;44936;52.086;5.150;2023-05-09T09:53:40;99665.69;;;15.49;100.00
36726;BME280;44936;52.086;5.150;2023-05-09T09:56:06;99658.78;;;15.45;100.00
36726;BME280;44936;52.086;5.150;2023-05-09T09:58:32;99670.06;;;15.50;100.00
36726;BME280;44936;52.086;5.150;2023-05-09T10:01:08;99646.75;;;15.38;100.00
36726;BME280;44936;52.086;5.150;2023-05-09T10:03:44;99673.44;;;15.54;100.00
36726;BME280;44936;52.086;5.150;2023-05-09T10:06:12;99634.47;;;15.36;100.00
36726;BME280;44936;52.086;5.150;2023-05-09T10:08:42;99648.22;;;15.45;100.00
36726;BME280;44936;52.086;5.150;2023-05-09T10:11:08;99627.31;;;15.39;100.00
36726;BME280;44936;52.086;5.150;2023-05-09T10:13:35;99645.00;;;15.37;100.00
36726;BME280;44936;52.086;5.150;2023-05-09T10:16:03;99607.06;;;15.15;100.00
36726;BME280;44936;52.086;5.150;2023-05-09T10:18:29;99594.13;;;15.07;100.00
36726;BME280;44936;52.086;5.150;2023-05-09T10:20:56;99608.66;;;15.19;100.00
36726;BME280;44936;52.086;5.150;2023-05-09T10:23:29;99640.69;;;15.35;100.00
36726;BME280;44936;52.086;5.150;2023-05-09T10:26:04;99625.53;;;15.40;100.00
36726;BME280;44936;52.086;5.150;2023-05-09T10:28:34;99618.00;;;15.29;100.00
36726;BME280;44936;52.086;5.150;2023-05-09T10:31:24;99610.66;;;15.37;100.00
36726;BME280;44936;52.086;5.150;2023-05-09T10:33:51;99574.50;;;15.14;100.00
36726;BME280;44936;52.086;5.150;2023-05-09T10:36:19;99600.03;;;15.39;100.00
36726;BME280;44936;52.086;5.150;2023-05-09T10:38:46;99588.69;;;15.35;100.00
36726;BME280;44936;52.086;5.150;2023-05-09T10:41:12;99564.25;;;15.30;100.00
36726;BME280;44936;52.086;5.150;2023-05-09T10:43:38;99546.56;;;15.32;100.00
36726;BME280;44936;52.086;5.150;2023-05-09T10:46:04;99518.13;;;15.15;100.00
36726;BME280;44936;52.086;5.150;2023-05-09T10:51:57;99535.41;;;15.24;100.00
36726;BME280;44936;52.086;5.150;2023-05-09T10:54:27;99555.91;;;15.41;100.00
36726;BME280;44936;52.086;5.150;2023-05-09T10:56:53;99540.22;;;15.36;100.00
36726;BME280;44936;52.086;5.150;2023-05-09T10:59:54;99527.88;;;15.37;100.00
36726;BME280;44936;52.086;5.150;2023-05-09T11:02:21;99516.69;;;15.30;100.00
36726;BME280;44936;52.086;5.150;2023-05-09T11:05:17;99485.50;;;15.16;100.00
36726;BME280;44936;52.086;5.150;2023-05-09T11:07:44;99479.47;;;15.13;100.00
36726;BME280;44936;52.086;5.150;2023-05-09T11:10:16;99484.75;;;15.13;100.00
36726;BME280;44936;52.086;5.150;2023-05-09T11:12:56;99509.78;;;15.26;100.00
36726;BME280;44936;52.086;5.150;2023-05-09T11:15:25;99493.00;;;15.28;100.00
36726;BME280;44936;52.086;5.150;2023-05-09T11:18:08;99462.06;;;15.07;100.00
36726;BME280;44936;52.086;5.150;2023-05-09T11:20:49;99472.81;;;15.26;100.00
36726;BME280;44936;52.086;5.150;2023-05-09T11:23:19;99453.88;;;15.15;100.00
36726;BME280;44936;52.086;5.150;2023-05-09T11:25:51;99445.88;;;15.16;100.00
36726;BME280;44936;52.086;5.150;2023-05-09T11:28:28;99438.94;;;15.14;100.00
36726;BME280;44936;52.086;5.150;2023-05-09T11:31:24;99467.00;;;15.40;100.00
36726;BME280;44936;52.086;5.150;2023-05-09T11:34:00;99470.50;;;15.40;100.00
36726;BME280;44936;52.086;5.150;2023-05-09T11:36:30;99476.94;;;15.33;100.00
36726;BME280;44936;52.086;5.150;2023-05-09T11:42:28;99451.09;;;15.18;100.00
36726;BME280;44936;52.086;5.150;2023-05-09T11:44:55;99485.66;;;15.35;100.00
36726;BME280;44936;52.086;5.150;2023-05-09T11:47:20;99476.03;;;15.34;100.00
36726;BME280;44936;52.086;5.150;2023-05-09T11:49:49;99460.38;;;15.29;100.00
36726;BME280;44936;52.086;5.150;2023-05-09T11:52:17;99445.31;;;15.32;100.00
36726;BME280;44936;52.086;5.150;2023-05-09T11:54:45;99431.47;;;15.25;100.00
36726;BME280;44936;52.086;5.150;2023-05-09T12:00:45;99458.03;;;15.44;100.00
36726;BME280;44936;52.086;5.150;2023-05-09T12:03:11;99459.09;;;15.40;100.00
36726;BME280;44936;52.086;5.150;2023-05-09T12:05:36;99422.13;;;15.16;100.00
36726;BME280;44936;52.086;5.150;2023-05-09T12:08:16;99409.53;;;15.23;100.00
36726;BME280;44936;52.086;5.150;2023-05-09T12:10:41;99396.47;;;15.20;100.00
36726;BME280;44936;52.086;5.150;2023-05-09T12:13:09;99424.81;;;15.38;100.00
36726;BME280;44936;52.086;5.150;2023-05-09T12:15:37;99432.31;;;15.49;100.00
36726;BME280;44936;52.086;5.150;2023-05-09T12:18:06;99442.50;;;15.58;100.00
36726;BME280;44936;52.086;5.150;2023-05-09T12:20:47;99418.09;;;15.51;100.00
36726;BME280;44936;52.086;5.150;2023-05-09T12:23:14;99398.38;;;15.38;100.00
36726;BME280;44936;52.086;5.150;2023-05-09T12:25:55;99417.00;;;15.57;100.00
36726;BME280;44936;52.086;5.150;2023-05-09T12:28:25;99403.16;;;15.50;100.00
36726;BME280;44936;52.086;5.150;2023-05-09T12:41:26;99424.00;;;15.58;100.00
36726;BME280;44936;52.086;5.150;2023-05-09T12:43:55;99463.81;;;15.77;100.00
36726;BME280;44936;52.086;5.150;2023-05-09T13:07:13;99423.72;;;15.88;100.00
36726;BME280;44936;52.086;5.150;2023-05-09T13:09:53;99430.41;;;15.96;100.00
36726;BME280;44936;52.086;5.150;2023-05-09T13:12:19;99398.41;;;15.82;100.00
36726;BME280;44936;52.086;5.150;2023-05-09T13:14:44;99398.06;;;15.90;100.00
36726;BME280;44936;52.086;5.150;2023-05-09T13:17:19;99387.56;;;15.88;100.00
36726;BME280;44936;52.086;5.150;2023-05-09T13:19:44;99396.56;;;15.84;100.00
36726;BME280;44936;52.086;5.150;2023-05-09T13:22:15;99397.84;;;15.74;100.00
36726;BME280;44936;52.086;5.150;2023-05-09T13:28:07;99371.47;;;15.72;100.00
36726;BME280;44936;52.086;5.150;2023-05-09T13:30:36;99355.66;;;15.71;100.00
36726;BME280;44936;52.086;5.150;2023-05-09T13:33:01;99368.19;;;15.88;100.00
36726;BME280;44936;52.086;5.150;2023-05-09T13:35:27;99343.31;;;15.71;100.00
36726;BME280;44936;52.086;5.150;2023-05-09T13:37:54;99335.66;;;15.65;100.00
36726;BME280;44936;52.086;5.150;2023-05-09T13:46:55;99334.66;;;15.68;100.00